sensor_id;sensor_type;location;lat;lon;timestamp;P1;durP1;ratioP1;P2;durP2;ratioP2
11046;SDS011;5576;50.008;10.596;2022-11-11T00:00:44;6.63;;;4.77;;
11046;SDS011;5576;50.008;10.596;2022-11-11T00:03:29;6.78;;;4.47;;
11046;SDS011;5576;50.008;10.596;2022-11-11T00:06:16;14.95;;;8.82;;
11046;SDS011;5576;50.008;10.596;2022-11-11T00:09:01;64.63;;;39.07;;
11046;SDS011;5576;50.008;10.596;2022-11-11T00:11:47;44.50;;;27.30;;
11046;SDS011;5576;50.008;10.596;2022-11-11T00:14:33;31.40;;;19.10;;
11046;SDS011;5576;50.008;10.596;2022-11-11T00:17:19;11.73;;;7.90;;
11046;SDS011;5576;50.008;10.596;2022-11-11T00:20:24;9.48;;;6.45;;
11046;SDS011;5576;50.008;10.596;2022-11-11T00:23:30;30.20;;;19.48;;
11046;SDS011;5576;50.008;10.596;2022-11-11T00:26:36;11.03;;;6.83;;
11046;SDS011;5576;50.008;10.596;2022-11-11T00:29:21;10.10;;;5.90;;
11046;SDS011;5576;50.008;10.596;2022-11-11T00:32:07;6.93;;;5.50;;
11046;SDS011;5576;50.008;10.596;2022-11-11T00:35:13;9.27;;;5.00;;
11046;SDS011;5576;50.008;10.596;2022-11-11T00:38:19;7.60;;;5.03;;
11046;SDS011;5576;50.008;10.596;2022-11-11T00:41:25;20.97;;;15.07;;
11046;SDS011;5576;50.008;10.596;2022-11-11T00:44:11;27.88;;;21.10;;
11046;SDS011;5576;50.008;10.596;2022-11-11T00:46:57;11.60;;;7.50;;
11046;SDS011;5576;50.008;10.596;2022-11-11T00:50:04;7.30;;;5.60;;
11046;SDS011;5576;50.008;10.596;2022-11-11T00:55:59;8.85;;;6.65;;
11046;SDS011;5576;50.008;10.596;2022-11-11T00:58:45;9.90;;;6.30;;
11046;SDS011;5576;50.008;10.596;2022-11-11T01:01:32;7.80;;;6.22;;
11046;SDS011;5576;50.008;10.596;2022-11-11T01:04:19;8.52;;;5.68;;
11046;SDS011;5576;50.008;10.596;2022-11-11T01:07:04;8.25;;;5.40;;
11046;SDS011;5576;50.008;10.596;2022-11-11T01:09:50;8.02;;;5.68;;
11046;SDS011;5576;50.008;10.596;2022-11-11T01:12:36;10.63;;;7.60;;
11046;SDS011;5576;50.008;10.596;2022-11-11T01:15:21;10.15;;;7.28;;
11046;SDS011;5576;50.008;10.596;2022-11-11T01:18:08;9.15;;;6.97;;
11046;SDS011;5576;50.008;10.596;2022-11-11T01:23:46;6.85;;;5.53;;
11046;SDS011;5576;50.008;10.596;2022-11-11T01:26:33;6.80;;;5.13;;
11046;SDS011;5576;50.008;10.596;2022-11-11T01:29:19;5.93;;;4.18;;
11046;SDS011;5576;50.008;10.596;2022-11-11T01:32:05;4.32;;;3.20;;
11046;SDS011;5576;50.008;10.596;2022-11-11T01:34:50;5.32;;;3.33;;
11046;SDS011;5576;50.008;10.596;2022-11-11T01:37:38;4.47;;;3.08;;
11046;SDS011;5576;50.008;10.596;2022-11-11T01:40:24;4.72;;;3.20;;
11046;SDS011;5576;50.008;10.596;2022-11-11T01:45:58;6.00;;;3.60;;
11046;SDS011;5576;50.008;10.596;2022-11-11T01:48:45;4.63;;;3.10;;
11046;SDS011;5576;50.008;10.596;2022-11-11T01:51:58;4.80;;;2.90;;
11046;SDS011;5576;50.008;10.596;2022-11-11T01:57:44;6.50;;;3.50;;
11046;SDS011;5576;50.008;10.596;2022-11-11T02:00:37;6.55;;;3.90;;
11046;SDS011;5576;50.008;10.596;2022-11-11T02:03:22;6.53;;;4.20;;
11046;SDS011;5576;50.008;10.596;2022-11-11T02:06:10;5.35;;;4.20;;
11046;SDS011;5576;50.008;10.596;2022-11-11T02:08:56;6.53;;;3.85;;
11046;SDS011;5576;50.008;10.596;2022-11-11T02:11:42;6.65;;;3.67;;
11046;SDS011;5576;50.008;10.596;2022-11-11T02:14:50;5.50;;;3.40;;
11046;SDS011;5576;50.008;10.596;2022-11-11T02:17:38;4.60;;;3.10;;
11046;SDS011;5576;50.008;10.596;2022-11-11T02:20:25;5.05;;;3.40;;
11046;SDS011;5576;50.008;10.596;2022-11-11T02:23:14;4.50;;;3.25;;
11046;SDS011;5576;50.008;10.596;2022-11-11T02:26:11;5.75;;;3.40;;
11046;SDS011;5576;50.008;10.596;2022-11-11T02:29:00;5.70;;;3.75;;
11046;SDS011;5576;50.008;10.596;2022-11-11T02:31:47;6.60;;;4.13;;
11046;SDS011;5576;50.008;10.596;2022-11-11T02:34:33;5.68;;;3.70;;
11046;SDS011;5576;50.008;10.596;2022-11-11T02:37:20;7.97;;;4.85;;
11046;SDS011;5576;50.008;10.596;2022-11-11T02:40:07;7.47;;;4.80;;
11046;SDS011;5576;50.008;10.596;2022-11-11T02:42:53;6.30;;;4.20;;
11046;SDS011;5576;50.008;10.596;2022-11-11T02:45:39;6.57;;;4.55;;
11046;SDS011;5576;50.008;10.596;2022-11-11T02:48:24;8.90;;;5.80;;
11046;SDS011;5576;50.008;10.596;2022-11-11T02:51:10;10.10;;;6.27;;
11046;SDS011;5576;50.008;10.596;2022-11-11T02:53:56;9.82;;;7.60;;
11046;SDS011;5576;50.008;10.596;2022-11-11T02:56:47;9.00;;;7.50;;
11046;SDS011;5576;50.008;10.596;2022-11-11T02:59:53;10.32;;;7.50;;
11046;SDS011;5576;50.008;10.596;2022-11-11T03:02:41;9.02;;;6.68;;
11046;SDS011;5576;50.008;10.596;2022-11-11T03:05:27;11.25;;;7.30;;
11046;SDS011;5576;50.008;10.596;2022-11-11T03:08:12;10.88;;;7.20;;
11046;SDS011;5576;50.008;10.596;2022-11-11T03:10:58;9.93;;;6.90;;
11046;SDS011;5576;50.008;10.596;2022-11-11T03:13:44;8.57;;;6.20;;
11046;SDS011;5576;50.008;10.596;2022-11-11T03:16:29;8.68;;;5.50;;
11046;SDS011;5576;50.008;10.596;2022-11-11T03:19:35;8.63;;;5.45;;
11046;SDS011;5576;50.008;10.596;2022-11-11T03:22:21;7.30;;;5.47;;
11046;SDS011;5576;50.008;10.596;2022-11-11T03:25:07;9.35;;;5.88;;
11046;SDS011;5576;50.008;10.596;2022-11-11T03:28:13;7.20;;;5.55;;
11046;SDS011;5576;50.008;10.596;2022-11-11T03:31:01;6.68;;;5.60;;
11046;SDS011;5576;50.008;10.596;2022-11-11T03:33:46;7.68;;;5.35;;
11046;SDS011;5576;50.008;10.596;2022-11-11T03:36:32;7.47;;;5.70;;
11046;SDS011;5576;50.008;10.596;2022-11-11T03:39:38;8.50;;;5.82;;
11046;SDS011;5576;50.008;10.596;2022-11-11T03:42:23;8.10;;;5.97;;
11046;SDS011;5576;50.008;10.596;2022-11-11T03:45:09;8.85;;;6.88;;
11046;SDS011;5576;50.008;10.596;2022-11-11T03:47:55;7.97;;;6.30;;
11046;SDS011;5576;50.008;10.596;2022-11-11T03:50:40;7.25;;;6.25;;
11046;SDS011;5576;50.008;10.596;2022-11-11T03:53:26;8.55;;;6.15;;
11046;SDS011;5576;50.008;10.596;2022-11-11T03:56:12;7.45;;;6.30;;
11046;SDS011;5576;50.008;10.596;2022-11-11T03:58:57;7.07;;;6.00;;
11046;SDS011;5576;50.008;10.596;2022-11-11T04:01:43;6.17;;;5.57;;
11046;SDS011;5576;50.008;10.596;2022-11-11T04:04:49;6.10;;;5.50;;
11046;SDS011;5576;50.008;10.596;2022-11-11T04:07:54;5.90;;;5.30;;
11046;SDS011;5576;50.008;10.596;2022-11-11T04:11:02;5.70;;;5.20;;
11046;SDS011;5576;50.008;10.596;2022-11-11T04:13:53;5.70;;;5.20;;
11046;SDS011;5576;50.008;10.596;2022-11-11T04:17:01;5.50;;;5.00;;
11046;SDS011;5576;50.008;10.596;2022-11-11T04:19:47;5.80;;;5.30;;
11046;SDS011;5576;50.008;10.596;2022-11-11T04:22:52;5.78;;;5.30;;
11046;SDS011;5576;50.008;10.596;2022-11-11T04:25:38;6.40;;;5.80;;
11046;SDS011;5576;50.008;10.596;2022-11-11T04:28:40;6.43;;;5.72;;
11046;SDS011;5576;50.008;10.596;2022-11-11T04:31:46;7.22;;;5.85;;
11046;SDS011;5576;50.008;10.596;2022-11-11T04:34:52;7.65;;;6.88;;
11046;SDS011;5576;50.008;10.596;2022-11-11T04:37:47;7.95;;;6.47;;
11046;SDS011;5576;50.008;10.596;2022-11-11T04:40:34;7.45;;;6.65;;
11046;SDS011;5576;50.008;10.596;2022-11-11T04:43:39;8.60;;;7.37;;
11046;SDS011;5576;50.008;10.596;2022-11-11T04:46:45;8.20;;;7.40;;
11046;SDS011;5576;50.008;10.596;2022-11-11T04:49:30;9.07;;;7.55;;
11046;SDS011;5576;50.008;10.596;2022-11-11T04:52:16;7.90;;;7.10;;
11046;SDS011;5576;50.008;10.596;2022-11-11T04:55:17;8.45;;;7.55;;
11046;SDS011;5576;50.008;10.596;2022-11-11T04:58:24;8.82;;;7.10;;
11046;SDS011;5576;50.008;10.596;2022-11-11T05:01:10;8.85;;;7.65;;
11046;SDS011;5576;50.008;10.596;2022-11-11T05:04:16;7.85;;;7.05;;
11046;SDS011;5576;50.008;10.596;2022-11-11T05:07:02;7.68;;;6.28;;
11046;SDS011;5576;50.008;10.596;2022-11-11T05:10:07;5.80;;;5.20;;
11046;SDS011;5576;50.008;10.596;2022-11-11T05:12:53;6.43;;;5.53;;
11046;SDS011;5576;50.008;10.596;2022-11-11T05:15:58;6.67;;;5.67;;
11046;SDS011;5576;50.008;10.596;2022-11-11T05:19:04;6.13;;;5.50;;
11046;SDS011;5576;50.008;10.596;2022-11-11T05:22:12;6.90;;;5.50;;
11046;SDS011;5576;50.008;10.596;2022-11-11T05:25:00;7.80;;;6.50;;
11046;SDS011;5576;50.008;10.596;2022-11-11T05:28:06;7.63;;;6.20;;
11046;SDS011;5576;50.008;10.596;2022-11-11T05:30:52;7.78;;;6.60;;
11046;SDS011;5576;50.008;10.596;2022-11-11T05:33:38;7.13;;;6.30;;
11046;SDS011;5576;50.008;10.596;2022-11-11T05:36:23;7.32;;;6.63;;
11046;SDS011;5576;50.008;10.596;2022-11-11T05:39:09;6.53;;;5.93;;
11046;SDS011;5576;50.008;10.596;2022-11-11T05:41:54;6.60;;;6.00;;
11046;SDS011;5576;50.008;10.596;2022-11-11T05:44:40;6.30;;;5.70;;
11046;SDS011;5576;50.008;10.596;2022-11-11T05:47:26;6.70;;;6.00;;
11046;SDS011;5576;50.008;10.596;2022-11-11T05:50:11;7.10;;;6.03;;
11046;SDS011;5576;50.008;10.596;2022-11-11T05:52:57;8.68;;;7.03;;
11046;SDS011;5576;50.008;10.596;2022-11-11T05:55:43;12.48;;;8.48;;
11046;SDS011;5576;50.008;10.596;2022-11-11T05:58:28;12.05;;;8.55;;
11046;SDS011;5576;50.008;10.596;2022-11-11T06:01:14;9.35;;;7.97;;
11046;SDS011;5576;50.008;10.596;2022-11-11T06:04:00;10.38;;;7.60;;
11046;SDS011;5576;50.008;10.596;2022-11-11T06:06:45;7.35;;;6.28;;
11046;SDS011;5576;50.008;10.596;2022-11-11T06:09:31;6.05;;;5.45;;
11046;SDS011;5576;50.008;10.596;2022-11-11T06:12:17;7.57;;;6.80;;
11046;SDS011;5576;50.008;10.596;2022-11-11T06:15:02;10.55;;;9.55;;
11046;SDS011;5576;50.008;10.596;2022-11-11T06:17:48;12.82;;;11.30;;
11046;SDS011;5576;50.008;10.596;2022-11-11T06:20:34;9.80;;;8.73;;
11046;SDS011;5576;50.008;10.596;2022-11-11T06:23:20;16.03;;;13.43;;
11046;SDS011;5576;50.008;10.596;2022-11-11T06:26:06;19.02;;;17.05;;
11046;SDS011;5576;50.008;10.596;2022-11-11T06:29:00;15.40;;;12.60;;
11046;SDS011;5576;50.008;10.596;2022-11-11T06:31:48;11.43;;;9.52;;
11046;SDS011;5576;50.008;10.596;2022-11-11T06:34:33;11.25;;;9.05;;
11046;SDS011;5576;50.008;10.596;2022-11-11T06:37:19;10.90;;;8.97;;
11046;SDS011;5576;50.008;10.596;2022-11-11T06:40:05;10.30;;;9.00;;
11046;SDS011;5576;50.008;10.596;2022-11-11T06:42:51;8.10;;;7.30;;
11046;SDS011;5576;50.008;10.596;2022-11-11T06:45:37;7.72;;;6.90;;
11046;SDS011;5576;50.008;10.596;2022-11-11T06:48:24;8.20;;;7.50;;
11046;SDS011;5576;50.008;10.596;2022-11-11T06:51:11;7.90;;;7.20;;
11046;SDS011;5576;50.008;10.596;2022-11-11T06:53:58;8.25;;;7.55;;
11046;SDS011;5576;50.008;10.596;2022-11-11T06:56:46;8.15;;;7.40;;
11046;SDS011;5576;50.008;10.596;2022-11-11T06:59:32;7.80;;;7.10;;
11046;SDS011;5576;50.008;10.596;2022-11-11T07:02:18;7.17;;;6.50;;
11046;SDS011;5576;50.008;10.596;2022-11-11T07:05:04;7.68;;;6.97;;
11046;SDS011;5576;50.008;10.596;2022-11-11T07:07:50;8.63;;;7.82;;
11046;SDS011;5576;50.008;10.596;2022-11-11T07:10:36;11.43;;;10.43;;
11046;SDS011;5576;50.008;10.596;2022-11-11T07:13:23;13.90;;;12.50;;
11046;SDS011;5576;50.008;10.596;2022-11-11T07:16:09;20.65;;;18.33;;
11046;SDS011;5576;50.008;10.596;2022-11-11T07:18:56;18.35;;;16.55;;
11046;SDS011;5576;50.008;10.596;2022-11-11T07:21:41;19.70;;;17.70;;
11046;SDS011;5576;50.008;10.596;2022-11-11T07:24:27;18.33;;;16.50;;
11046;SDS011;5576;50.008;10.596;2022-11-11T07:27:13;18.63;;;16.65;;
11046;SDS011;5576;50.008;10.596;2022-11-11T07:29:58;23.83;;;21.42;;
11046;SDS011;5576;50.008;10.596;2022-11-11T07:32:44;19.23;;;17.33;;
11046;SDS011;5576;50.008;10.596;2022-11-11T07:35:31;19.10;;;17.20;;
11046;SDS011;5576;50.008;10.596;2022-11-11T07:38:17;15.43;;;13.83;;
11046;SDS011;5576;50.008;10.596;2022-11-11T07:41:03;20.88;;;18.77;;
11046;SDS011;5576;50.008;10.596;2022-11-11T07:43:49;21.10;;;18.90;;
11046;SDS011;5576;50.008;10.596;2022-11-11T07:46:34;19.40;;;17.30;;
11046;SDS011;5576;50.008;10.596;2022-11-11T07:49:20;18.13;;;16.17;;
11046;SDS011;5576;50.008;10.596;2022-11-11T07:52:06;35.70;;;28.27;;
11046;SDS011;5576;50.008;10.596;2022-11-11T07:54:51;29.13;;;24.08;;
11046;SDS011;5576;50.008;10.596;2022-11-11T07:57:37;35.03;;;27.98;;
11046;SDS011;5576;50.008;10.596;2022-11-11T08:00:23;33.85;;;28.90;;
11046;SDS011;5576;50.008;10.596;2022-11-11T08:03:08;32.77;;;27.30;;
11046;SDS011;5576;50.008;10.596;2022-11-11T08:05:54;24.15;;;19.67;;
11046;SDS011;5576;50.008;10.596;2022-11-11T08:08:40;20.08;;;15.48;;
11046;SDS011;5576;50.008;10.596;2022-11-11T08:11:26;14.55;;;12.70;;
11046;SDS011;5576;50.008;10.596;2022-11-11T08:14:31;12.02;;;10.80;;
11046;SDS011;5576;50.008;10.596;2022-11-11T08:17:17;15.43;;;11.40;;
11046;SDS011;5576;50.008;10.596;2022-11-11T08:20:02;14.13;;;10.80;;
11046;SDS011;5576;50.008;10.596;2022-11-11T08:22:49;10.88;;;9.73;;
11046;SDS011;5576;50.008;10.596;2022-11-11T08:25:42;15.10;;;10.85;;
11046;SDS011;5576;50.008;10.596;2022-11-11T08:28:28;12.50;;;10.98;;
11046;SDS011;5576;50.008;10.596;2022-11-11T08:31:15;14.30;;;11.05;;
11046;SDS011;5576;50.008;10.596;2022-11-11T08:34:01;12.98;;;11.55;;
11046;SDS011;5576;50.008;10.596;2022-11-11T08:36:47;12.50;;;11.20;;
11046;SDS011;5576;50.008;10.596;2022-11-11T08:39:32;12.77;;;9.60;;
11046;SDS011;5576;50.008;10.596;2022-11-11T08:42:18;9.93;;;8.90;;
11046;SDS011;5576;50.008;10.596;2022-11-11T08:45:07;9.82;;;8.27;;
11046;SDS011;5576;50.008;10.596;2022-11-11T08:47:54;9.20;;;7.70;;
11046;SDS011;5576;50.008;10.596;2022-11-11T08:50:40;8.15;;;7.35;;
11046;SDS011;5576;50.008;10.596;2022-11-11T08:53:26;8.30;;;7.22;;
11046;SDS011;5576;50.008;10.596;2022-11-11T08:56:12;8.55;;;7.63;;
11046;SDS011;5576;50.008;10.596;2022-11-11T08:58:58;9.32;;;8.35;;
11046;SDS011;5576;50.008;10.596;2022-11-11T09:01:44;9.60;;;8.30;;
11046;SDS011;5576;50.008;10.596;2022-11-11T09:04:30;9.05;;;8.15;;
11046;SDS011;5576;50.008;10.596;2022-11-11T09:07:16;9.40;;;8.48;;
11046;SDS011;5576;50.008;10.596;2022-11-11T09:10:02;8.82;;;8.00;;
11046;SDS011;5576;50.008;10.596;2022-11-11T09:12:48;9.52;;;8.40;;
11046;SDS011;5576;50.008;10.596;2022-11-11T09:15:34;10.68;;;9.52;;
11046;SDS011;5576;50.008;10.596;2022-11-11T09:18:20;11.18;;;9.27;;
11046;SDS011;5576;50.008;10.596;2022-11-11T09:21:09;10.82;;;9.73;;
11046;SDS011;5576;50.008;10.596;2022-11-11T09:23:56;10.80;;;9.80;;
11046;SDS011;5576;50.008;10.596;2022-11-11T09:26:47;10.85;;;9.75;;
11046;SDS011;5576;50.008;10.596;2022-11-11T09:29:33;10.70;;;9.20;;
11046;SDS011;5576;50.008;10.596;2022-11-11T09:32:20;11.02;;;9.88;;
11046;SDS011;5576;50.008;10.596;2022-11-11T09:35:07;10.20;;;9.20;;
11046;SDS011;5576;50.008;10.596;2022-11-11T09:37:54;9.50;;;8.55;;
11046;SDS011;5576;50.008;10.596;2022-11-11T09:49:45;8.38;;;7.55;;
11046;SDS011;5576;50.008;10.596;2022-11-11T09:52:46;8.55;;;7.75;;
11046;SDS011;5576;50.008;10.596;2022-11-11T09:55:51;8.57;;;7.85;;
11046;SDS011;5576;50.008;10.596;2022-11-11T09:58:43;10.05;;;8.40;;
11046;SDS011;5576;50.008;10.596;2022-11-11T10:01:38;8.65;;;7.57;;
11046;SDS011;5576;50.008;10.596;2022-11-11T10:07:35;12.65;;;9.10;;
11046;SDS011;5576;50.008;10.596;2022-11-11T10:10:45;9.70;;;7.37;;
11046;SDS011;5576;50.008;10.596;2022-11-11T10:13:33;8.32;;;7.22;;
11046;SDS011;5576;50.008;10.596;2022-11-11T10:19:50;7.55;;;6.68;;
11046;SDS011;5576;50.008;10.596;2022-11-11T10:22:42;8.07;;;6.85;;
11046;SDS011;5576;50.008;10.596;2022-11-11T10:25:30;8.70;;;7.80;;
11046;SDS011;5576;50.008;10.596;2022-11-11T10:28:16;9.63;;;7.65;;
11046;SDS011;5576;50.008;10.596;2022-11-11T10:31:09;8.18;;;7.07;;
11046;SDS011;5576;50.008;10.596;2022-11-11T10:33:59;7.95;;;7.15;;
11046;SDS011;5576;50.008;10.596;2022-11-11T10:36:56;7.50;;;6.70;;
11046;SDS011;5576;50.008;10.596;2022-11-11T10:42:54;7.50;;;6.32;;
11046;SDS011;5576;50.008;10.596;2022-11-11T10:51:27;8.00;;;6.57;;
11046;SDS011;5576;50.008;10.596;2022-11-11T10:54:17;8.20;;;6.25;;
11046;SDS011;5576;50.008;10.596;2022-11-11T10:57:12;8.80;;;6.35;;
11046;SDS011;5576;50.008;10.596;2022-11-11T11:02:56;6.95;;;5.63;;
11046;SDS011;5576;50.008;10.596;2022-11-11T11:05:51;14.93;;;12.70;;
11046;SDS011;5576;50.008;10.596;2022-11-11T11:08:48;45.20;;;35.30;;
11046;SDS011;5576;50.008;10.596;2022-11-11T11:11:43;44.13;;;31.63;;
11046;SDS011;5576;50.008;10.596;2022-11-11T11:14:33;11.32;;;9.90;;
11046;SDS011;5576;50.008;10.596;2022-11-11T11:17:24;12.23;;;10.00;;
11046;SDS011;5576;50.008;10.596;2022-11-11T11:20:16;8.85;;;7.95;;
11046;SDS011;5576;50.008;10.596;2022-11-11T11:23:04;6.75;;;6.05;;
11046;SDS011;5576;50.008;10.596;2022-11-11T11:25:52;7.03;;;6.32;;
11046;SDS011;5576;50.008;10.596;2022-11-11T11:28:51;6.83;;;6.07;;
11046;SDS011;5576;50.008;10.596;2022-11-11T11:31:42;8.93;;;6.38;;
11046;SDS011;5576;50.008;10.596;2022-11-11T11:34:41;8.48;;;6.05;;
11046;SDS011;5576;50.008;10.596;2022-11-11T11:37:31;6.55;;;5.75;;
11046;SDS011;5576;50.008;10.596;2022-11-11T11:43:41;6.00;;;5.50;;
11046;SDS011;5576;50.008;10.596;2022-11-11T11:46:28;6.43;;;5.82;;
11046;SDS011;5576;50.008;10.596;2022-11-11T11:55:31;6.97;;;6.28;;
11046;SDS011;5576;50.008;10.596;2022-11-11T12:04:31;6.70;;;5.80;;
11046;SDS011;5576;50.008;10.596;2022-11-11T12:10:48;6.05;;;5.45;;
11046;SDS011;5576;50.008;10.596;2022-11-11T12:13:45;8.63;;;7.30;;
11046;SDS011;5576;50.008;10.596;2022-11-11T12:34:35;8.68;;;7.78;;
11046;SDS011;5576;50.008;10.596;2022-11-11T12:44:06;7.88;;;5.93;;
11046;SDS011;5576;50.008;10.596;2022-11-11T12:47:06;7.47;;;6.63;;
11046;SDS011;5576;50.008;10.596;2022-11-11T12:56:05;6.68;;;6.07;;
11046;SDS011;5576;50.008;10.596;2022-11-11T13:12:16;14.45;;;11.57;;
11046;SDS011;5576;50.008;10.596;2022-11-11T13:15:13;9.25;;;6.30;;
11046;SDS011;5576;50.008;10.596;2022-11-11T13:18:07;7.60;;;6.07;;
11046;SDS011;5576;50.008;10.596;2022-11-11T13:20:58;6.95;;;6.25;;
11046;SDS011;5576;50.008;10.596;2022-11-11T13:23:48;8.15;;;5.78;;
11046;SDS011;5576;50.008;10.596;2022-11-11T13:26:42;7.47;;;5.83;;
11046;SDS011;5576;50.008;10.596;2022-11-11T13:32:30;6.97;;;5.28;;
11046;SDS011;5576;50.008;10.596;2022-11-11T13:35:38;6.75;;;4.90;;
11046;SDS011;5576;50.008;10.596;2022-11-11T13:38:33;7.33;;;5.00;;
11046;SDS011;5576;50.008;10.596;2022-11-11T13:41:31;5.95;;;4.60;;
11046;SDS011;5576;50.008;10.596;2022-11-11T13:44:21;6.15;;;4.65;;
11046;SDS011;5576;50.008;10.596;2022-11-11T13:47:12;5.28;;;4.20;;
11046;SDS011;5576;50.008;10.596;2022-11-11T13:50:08;5.35;;;4.30;;
11046;SDS011;5576;50.008;10.596;2022-11-11T13:53:11;6.53;;;4.53;;
11046;SDS011;5576;50.008;10.596;2022-11-11T13:56:00;5.75;;;4.28;;
11046;SDS011;5576;50.008;10.596;2022-11-11T13:58:48;5.50;;;4.43;;
11046;SDS011;5576;50.008;10.596;2022-11-11T14:01:35;5.50;;;4.30;;
11046;SDS011;5576;50.008;10.596;2022-11-11T14:04:24;7.68;;;5.82;;
11046;SDS011;5576;50.008;10.596;2022-11-11T14:07:10;6.20;;;4.82;;
11046;SDS011;5576;50.008;10.596;2022-11-11T14:16:08;6.95;;;5.40;;
11046;SDS011;5576;50.008;10.596;2022-11-11T14:18:55;7.00;;;5.18;;
11046;SDS011;5576;50.008;10.596;2022-11-11T14:21:42;6.47;;;5.17;;
11046;SDS011;5576;50.008;10.596;2022-11-11T14:24:45;8.73;;;5.65;;
11046;SDS011;5576;50.008;10.596;2022-11-11T14:27:31;6.65;;;4.85;;
11046;SDS011;5576;50.008;10.596;2022-11-11T14:30:27;6.47;;;4.93;;
11046;SDS011;5576;50.008;10.596;2022-11-11T14:33:22;5.75;;;5.03;;
11046;SDS011;5576;50.008;10.596;2022-11-11T14:39:47;6.40;;;5.07;;
11046;SDS011;5576;50.008;10.596;2022-11-11T14:57:40;6.55;;;5.60;;
11046;SDS011;5576;50.008;10.596;2022-11-11T15:03:51;7.57;;;6.18;;
11046;SDS011;5576;50.008;10.596;2022-11-11T15:09:52;9.02;;;7.40;;
11046;SDS011;5576;50.008;10.596;2022-11-11T15:15:33;9.75;;;8.25;;
11046;SDS011;5576;50.008;10.596;2022-11-11T15:18:45;10.20;;;9.20;;
11046;SDS011;5576;50.008;10.596;2022-11-11T15:21:43;10.93;;;9.40;;
11046;SDS011;5576;50.008;10.596;2022-11-11T15:24:39;10.82;;;9.73;;
11046;SDS011;5576;50.008;10.596;2022-11-11T15:27:55;10.15;;;8.75;;
11046;SDS011;5576;50.008;10.596;2022-11-11T15:30:48;10.27;;;9.02;;
11046;SDS011;5576;50.008;10.596;2022-11-11T15:36:50;10.07;;;9.07;;
11046;SDS011;5576;50.008;10.596;2022-11-11T15:39:41;10.57;;;9.30;;
11046;SDS011;5576;50.008;10.596;2022-11-11T15:42:33;12.90;;;10.53;;
11046;SDS011;5576;50.008;10.596;2022-11-11T15:45:22;8.65;;;7.65;;
11046;SDS011;5576;50.008;10.596;2022-11-11T15:48:17;10.20;;;7.80;;
11046;SDS011;5576;50.008;10.596;2022-11-11T15:51:15;16.25;;;12.77;;
11046;SDS011;5576;50.008;10.596;2022-11-11T15:54:09;24.65;;;18.85;;
11046;SDS011;5576;50.008;10.596;2022-11-11T16:00:26;40.95;;;27.85;;
11046;SDS011;5576;50.008;10.596;2022-11-11T16:03:14;69.22;;;44.63;;
11046;SDS011;5576;50.008;10.596;2022-11-11T16:06:04;34.75;;;23.95;;
11046;SDS011;5576;50.008;10.596;2022-11-11T16:08:54;21.92;;;16.20;;
11046;SDS011;5576;50.008;10.596;2022-11-11T16:11:40;17.45;;;13.77;;
11046;SDS011;5576;50.008;10.596;2022-11-11T16:14:28;16.58;;;13.02;;
11046;SDS011;5576;50.008;10.596;2022-11-11T16:17:21;20.88;;;16.05;;
11046;SDS011;5576;50.008;10.596;2022-11-11T16:20:12;12.97;;;10.60;;
11046;SDS011;5576;50.008;10.596;2022-11-11T16:23:00;12.85;;;11.20;;
11046;SDS011;5576;50.008;10.596;2022-11-11T16:25:48;16.37;;;14.67;;
11046;SDS011;5576;50.008;10.596;2022-11-11T16:28:37;18.45;;;16.55;;
11046;SDS011;5576;50.008;10.596;2022-11-11T16:34:31;22.98;;;20.55;;
11046;SDS011;5576;50.008;10.596;2022-11-11T16:37:18;22.87;;;20.37;;
11046;SDS011;5576;50.008;10.596;2022-11-11T16:46:36;13.60;;;12.15;;
11046;SDS011;5576;50.008;10.596;2022-11-11T16:52:14;13.18;;;11.13;;
11046;SDS011;5576;50.008;10.596;2022-11-11T16:55:03;12.82;;;11.50;;
11046;SDS011;5576;50.008;10.596;2022-11-11T16:57:50;14.85;;;11.77;;
11046;SDS011;5576;50.008;10.596;2022-11-11T17:00:37;23.02;;;20.23;;
11046;SDS011;5576;50.008;10.596;2022-11-11T17:03:24;17.85;;;15.15;;
11046;SDS011;5576;50.008;10.596;2022-11-11T17:06:15;12.20;;;10.90;;
11046;SDS011;5576;50.008;10.596;2022-11-11T17:09:42;10.05;;;8.48;;
11046;SDS011;5576;50.008;10.596;2022-11-11T17:12:16;8.27;;;6.97;;
11046;SDS011;5576;50.008;10.596;2022-11-11T17:15:15;8.57;;;7.50;;
11046;SDS011;5576;50.008;10.596;2022-11-11T17:18:02;9.85;;;8.07;;
11046;SDS011;5576;50.008;10.596;2022-11-11T17:20:48;11.23;;;8.32;;
11046;SDS011;5576;50.008;10.596;2022-11-11T17:23:35;12.30;;;11.00;;
11046;SDS011;5576;50.008;10.596;2022-11-11T17:26:21;15.80;;;14.10;;
11046;SDS011;5576;50.008;10.596;2022-11-11T17:29:07;13.57;;;11.63;;
11046;SDS011;5576;50.008;10.596;2022-11-11T17:31:54;11.73;;;10.30;;
11046;SDS011;5576;50.008;10.596;2022-11-11T17:34:40;12.25;;;9.88;;
11046;SDS011;5576;50.008;10.596;2022-11-11T17:37:26;12.20;;;10.25;;
11046;SDS011;5576;50.008;10.596;2022-11-11T17:40:11;12.75;;;10.20;;
11046;SDS011;5576;50.008;10.596;2022-11-11T17:42:57;11.60;;;10.37;;
11046;SDS011;5576;50.008;10.596;2022-11-11T17:45:43;12.40;;;10.73;;
11046;SDS011;5576;50.008;10.596;2022-11-11T17:48:28;12.30;;;10.65;;
11046;SDS011;5576;50.008;10.596;2022-11-11T17:51:14;11.07;;;9.70;;
11046;SDS011;5576;50.008;10.596;2022-11-11T17:54:00;10.35;;;9.15;;
11046;SDS011;5576;50.008;10.596;2022-11-11T17:56:45;12.07;;;8.63;;
11046;SDS011;5576;50.008;10.596;2022-11-11T17:59:31;10.18;;;8.20;;
11046;SDS011;5576;50.008;10.596;2022-11-11T18:02:17;9.97;;;7.77;;
11046;SDS011;5576;50.008;10.596;2022-11-11T18:05:04;11.48;;;9.15;;
11046;SDS011;5576;50.008;10.596;2022-11-11T18:07:50;15.10;;;13.25;;
11046;SDS011;5576;50.008;10.596;2022-11-11T18:10:35;72.88;;;37.53;;
11046;SDS011;5576;50.008;10.596;2022-11-11T18:13:21;161.25;;;77.60;;
11046;SDS011;5576;50.008;10.596;2022-11-11T18:16:12;91.28;;;48.50;;
11046;SDS011;5576;50.008;10.596;2022-11-11T18:18:59;38.20;;;24.75;;
11046;SDS011;5576;50.008;10.596;2022-11-11T18:21:46;30.13;;;20.05;;
11046;SDS011;5576;50.008;10.596;2022-11-11T18:24:32;29.73;;;21.42;;
11046;SDS011;5576;50.008;10.596;2022-11-11T18:27:18;33.97;;;24.55;;
11046;SDS011;5576;50.008;10.596;2022-11-11T18:30:03;36.10;;;25.00;;
11046;SDS011;5576;50.008;10.596;2022-11-11T18:32:49;28.13;;;22.87;;
11046;SDS011;5576;50.008;10.596;2022-11-11T18:35:35;24.67;;;21.33;;
11046;SDS011;5576;50.008;10.596;2022-11-11T18:38:21;33.15;;;28.17;;
11046;SDS011;5576;50.008;10.596;2022-11-11T18:41:08;25.10;;;20.80;;
11046;SDS011;5576;50.008;10.596;2022-11-11T18:43:56;21.33;;;18.90;;
11046;SDS011;5576;50.008;10.596;2022-11-11T18:46:43;20.43;;;18.23;;
11046;SDS011;5576;50.008;10.596;2022-11-11T18:49:29;18.80;;;16.90;;
11046;SDS011;5576;50.008;10.596;2022-11-11T18:52:15;17.13;;;15.40;;
11046;SDS011;5576;50.008;10.596;2022-11-11T18:55:00;17.70;;;15.50;;
11046;SDS011;5576;50.008;10.596;2022-11-11T18:57:46;19.95;;;17.63;;
11046;SDS011;5576;50.008;10.596;2022-11-11T19:00:32;18.85;;;16.80;;
11046;SDS011;5576;50.008;10.596;2022-11-11T19:03:17;17.42;;;15.60;;
11046;SDS011;5576;50.008;10.596;2022-11-11T19:06:04;19.02;;;17.00;;
11046;SDS011;5576;50.008;10.596;2022-11-11T19:08:56;18.80;;;15.87;;
11046;SDS011;5576;50.008;10.596;2022-11-11T19:11:44;19.95;;;16.83;;
11046;SDS011;5576;50.008;10.596;2022-11-11T19:14:30;19.50;;;17.42;;
11046;SDS011;5576;50.008;10.596;2022-11-11T19:17:16;15.03;;;13.17;;
11046;SDS011;5576;50.008;10.596;2022-11-11T19:20:02;13.15;;;11.73;;
11046;SDS011;5576;50.008;10.596;2022-11-11T19:22:49;18.35;;;16.30;;
11046;SDS011;5576;50.008;10.596;2022-11-11T19:25:35;21.20;;;19.03;;
11046;SDS011;5576;50.008;10.596;2022-11-11T19:28:21;18.70;;;16.73;;
11046;SDS011;5576;50.008;10.596;2022-11-11T19:31:08;34.45;;;31.02;;